Arctic Fury — WDE9335 — position and weather

sailwx.info

Track history (hours):
 
Tides and Currents Weather Stations Pressure Air Temp Water Temp Dewpoint Dewpoint Depression Visibility Wind Speed Wind Dir Waves Ship Positions

Arctic Fury

Owner: Fury Group Inc, Seattle, WA. More information available from US FCC via Universal Licensing System and Coast Guard Vessel Documentation Center.

Last reported at 2015-Sep-01 01:33 UTC. Time now 2015-Sep-01 01:51 UTC.
Position N 46°01' W 124°45'.

Length 43 m; draft 5 m.

Type: Fishing. MMSI: 366468000.

Date/timePositionNaut miles runAvg speedWind from/ knotsBaromVisibWave heightAir tempDewpointWater temp
2015-Sep-01 01:33N 46°01' W 124°45'10 9.8
2015-Sep-01 00:33N 46°10' W 124°41'9 9.2
2015-Aug-31 23:33N 46°19' W 124°39'9 8.6
2015-Aug-31 22:33N 46°28' W 124°37'9 8.6
2015-Aug-31 21:33N 46°36' W 124°39'8 8.0
2015-Aug-31 20:33N 46°40' W 124°49'7 7.1
2015-Aug-31 19:33N 46°46' W 124°53'6 6.2
2015-Aug-31 18:33N 46°52' W 124°55'6 6.1
2015-Aug-31 17:30N 46°54' W 124°46'7 8.0
2015-Aug-31 16:33N 46°54' W 124°35'8 8.4
2015-Aug-31 15:33N 46°55' W 124°23'8 7.5
2015-Aug-31 14:33N 46°55' W 124°12'2 0.1
2015-Aug-29 16:33N 46°53' W 124°14'10 9.9
2015-Aug-29 15:33N 46°43' W 124°16'9 9.6
2015-Aug-29 14:33N 46°33' W 124°18'10 9.5
2015-Aug-29 13:33N 46°24' W 124°20'9 9.4
2015-Aug-29 12:33N 46°15' W 124°23'9 9.3
2015-Aug-29 11:33N 46°05' W 124°25'9 9.1
2015-Aug-29 10:33N 45°56' W 124°27'9 9.2
2015-Aug-29 09:33N 45°47' W 124°29'9 9.0
2015-Aug-29 08:33N 45°38' W 124°31'10 9.6
2015-Aug-29 07:33N 45°29' W 124°33'10 9.5
2015-Aug-29 06:33N 45°20' W 124°35'10 9.7
2015-Aug-29 05:33N 45°10' W 124°37'7 5.6
2015-Aug-29 04:18N 45°03' W 124°39'2 2.0
2015-Aug-29 03:23N 45°01' W 124°39'3 3.0
2015-Aug-29 02:32N 44°59' W 124°39'3 2.9
2015-Aug-29 01:29N 44°56' W 124°38'3 2.7
2015-Aug-29 00:31N 44°56' W 124°34'4 0.2
2015-Aug-28 05:13N 44°55' W 124°39'1 2.1
2015-Aug-28 04:33N 44°57' W 124°39'2 2.5
2015-Aug-28 03:33N 44°59' W 124°39'3 3.0
2015-Aug-28 02:33N 45°02' W 124°39'3 1.4
2015-Aug-28 00:33N 44°59' W 124°39'3 3.0
2015-Aug-27 23:28N 44°56' W 124°38'3 2.9
2015-Aug-27 22:33N 44°55' W 124°35'3 3.2
2015-Aug-27 21:33N 44°57' W 124°31'3 3.0
2015-Aug-27 20:30N 45°00' W 124°31'2 0.7
2015-Aug-27 18:18N 44°59' W 124°32'2 3.1
2015-Aug-27 17:33N 44°57' W 124°33'3 3.1
2015-Aug-27 16:32N 44°55' W 124°36'3 2.9
2015-Aug-27 15:25N 44°57' W 124°39'4 3.2
2015-Aug-27 14:13N 45°01' W 124°39'2 3.6
2015-Aug-27 13:33N 45°03' W 124°39'2 2.0
2015-Aug-27 12:33N 45°01' W 124°38'4 3.6
2015-Aug-27 11:33N 45°03' W 124°34'2 0.6
2015-Aug-27 08:31N 45°04' W 124°37'3 2.2
2015-Aug-27 07:06N 45°00' W 124°37'2 4.0
2015-Aug-27 06:33N 44°58' W 124°37'4 3.9
2015-Aug-27 05:33N 44°54' W 124°38'1 1.4
2015-Aug-27 04:31N 44°55' W 124°36'3 2.9
2015-Aug-27 03:32N 44°56' W 124°33'0 0.0
2015-Aug-27 01:32N 44°56' W 124°33'6 1.9
2015-Aug-26 22:33N 44°60' W 124°39'3 3.1
2015-Aug-26 21:33N 45°03' W 124°39'3 3.1
2015-Aug-26 20:32N 45°06' W 124°40'3 3.3
2015-Aug-26 19:33N 45°08' W 124°43'9 8.6
2015-Aug-26 18:33N 45°17' W 124°43'9 9.5
2015-Aug-26 17:33N 45°25' W 124°37'1010.1
2015-Aug-26 16:33N 45°35' W 124°33'9 9.3
2015-Aug-26 15:34N 45°42' W 124°42'9 9.2
2015-Aug-26 14:33N 45°51' W 124°43'9 9.0
2015-Aug-26 13:33N 45°60' W 124°46'2 1.9
2015-Aug-26 12:33N 45°59' W 124°48'0 0.4
2015-Aug-26 11:33N 45°59' W 124°48'1 0.8
2015-Aug-26 10:33N 45°60' W 124°49'1 0.8
2015-Aug-26 09:33N 46°00' W 124°49'1 0.8
2015-Aug-26 08:33N 46°01' W 124°49'1 1.0
2015-Aug-26 07:33N 46°02' W 124°49'1 0.9
2015-Aug-26 06:33N 46°03' W 124°50'4 3.5
2015-Aug-26 05:33N 46°04' W 124°55'4 4.4
2015-Aug-26 04:33N 46°07' W 124°59'6 5.8
2015-Aug-26 03:33N 46°12' W 125°03'8 7.6
2015-Aug-26 02:32N 46°19' W 124°58'8 8.0
2015-Aug-26 01:33N 46°24' W 124°49'8 7.8
2015-Aug-26 00:33N 46°29' W 124°40'8 8.3
2015-Aug-25 23:33N 46°36' W 124°33'8 8.2
2015-Aug-25 22:33N 46°43' W 124°27'8 8.0
2015-Aug-25 21:34N 46°49' W 124°20'6 6.4
2015-Aug-25 20:33N 46°54' W 124°13'5 0.4
2015-Aug-25 09:31N 46°54' W 124°06'3 0.2
2015-Aug-24 14:30N 46°54' W 124°11'6 6.4
2015-Aug-24 13:33N 46°49' W 124°15'6 5.6
2015-Aug-24 12:33N 46°44' W 124°18'6 6.0
2015-Aug-24 11:33N 46°38' W 124°22'7 6.6
2015-Aug-24 10:33N 46°32' W 124°25'7 6.6
2015-Aug-24 09:33N 46°26' W 124°29'7 7.0
2015-Aug-24 08:33N 46°19' W 124°32'7 7.4
2015-Aug-24 07:33N 46°13' W 124°36'7 6.8
2015-Aug-24 06:33N 46°06' W 124°40'6 6.5
2015-Aug-24 05:33N 46°00' W 124°43'5 5.0
2015-Aug-24 04:33N 45°55' W 124°45'2 1.8
2015-Aug-24 03:33N 45°57' W 124°44'2 2.0
2015-Aug-24 02:33N 45°59' W 124°46'3 2.7
2015-Aug-24 01:33N 45°56' W 124°45'3 2.9
2015-Aug-24 00:33N 45°53' W 124°45'0 0.2
2015-Aug-23 23:33N 45°53' W 124°45'3 3.0
2015-Aug-23 22:33N 45°56' W 124°44'3 3.0
2015-Aug-23 21:33N 45°59' W 124°46'2 1.7
2015-Aug-23 20:33N 45°58' W 124°44'3 2.8
2015-Aug-23 19:33N 45°55' W 124°45'3 2.8
2015-Aug-23 18:33N 45°52' W 124°45'0 0.2
2015-Aug-23 17:33N 45°52' W 124°45'3 3.4
2015-Aug-23 16:33N 45°56' W 124°44'3 3.1
2015-Aug-23 15:33N 45°59' W 124°45'1 1.4
2015-Aug-23 14:33N 45°60' W 124°46'4 4.2
2015-Aug-23 13:33N 45°56' W 124°44'3 3.1
2015-Aug-23 12:33N 45°53' W 124°45'3 3.3
2015-Aug-23 11:33N 45°51' W 124°48'2 2.0
2015-Aug-23 10:33N 45°52' W 124°47'2 2.0
2015-Aug-23 09:33N 45°54' W 124°45'2 2.2
2015-Aug-23 08:33N 45°56' W 124°44'2 2.2
2015-Aug-23 07:33N 45°58' W 124°42'1 0.5
2015-Aug-23 06:33N 45°58' W 124°43'2 1.5
2015-Aug-23 05:33N 45°57' W 124°45'1 1.0
2015-Aug-23 04:33N 45°57' W 124°46'1 0.7
2015-Aug-23 03:33N 45°56' W 124°45'2 2.3
2015-Aug-23 02:33N 45°54' W 124°45'2 1.9
2015-Aug-23 01:33N 45°52' W 124°46'3 2.9
2015-Aug-23 00:33N 45°55' W 124°45'3 2.9
2015-Aug-22 23:33N 45°58' W 124°45'0 0.1
2015-Aug-22 22:33N 45°58' W 124°45'3 2.8
2015-Aug-22 21:33N 45°55' W 124°45'3 3.0
2015-Aug-22 20:33N 45°52' W 124°45'3 2.8
2015-Aug-22 19:33N 45°50' W 124°45'3 2.8
2015-Aug-22 18:33N 45°47' W 124°44'1 0.8
2015-Aug-22 17:33N 45°46' W 124°44'3 3.1
2015-Aug-22 16:33N 45°49' W 124°43'3 3.1
2015-Aug-22 15:33N 45°52' W 124°44'3 3.4
2015-Aug-22 14:33N 45°56' W 124°44'3 2.9
2015-Aug-22 13:33N 45°53' W 124°45'6 5.7
2015-Aug-22 12:33N 45°59' W 124°44'5 4.7
2015-Aug-22 11:33N 46°03' W 124°42'6 5.8
2015-Aug-22 10:33N 46°08' W 124°39'6 6.3
2015-Aug-22 09:34N 46°14' W 124°35'6 6.0
2015-Aug-22 08:33N 46°20' W 124°32'6 5.5
2015-Aug-22 07:31N 46°25' W 124°29'5 5.3
2015-Aug-22 06:33N 46°30' W 124°27'5 5.3
2015-Aug-22 05:33N 46°35' W 124°24'6 5.5
2015-Aug-22 04:33N 46°40' W 124°21'6 5.5
2015-Aug-22 03:33N 46°45' W 124°18'5 5.4
2015-Aug-22 02:33N 46°50' W 124°15'  
Track history (hours):
 
Tides and Currents Weather Stations Pressure Air Temp Water Temp Dewpoint Dewpoint Depression Visibility Wind Speed Wind Dir Waves Ship Positions

Arctic Fury

Owner: Fury Group Inc, Seattle, WA. More information available from US FCC via Universal Licensing System and Coast Guard Vessel Documentation Center.

Last reported at 2015-Sep-01 01:33 UTC. Time now 2015-Sep-01 01:51 UTC.
Position N 46°01' W 124°45'.

Length 43 m; draft 5 m.

Type: Fishing. MMSI: 366468000.

Date/timePositionNaut miles runAvg speedWind from/ knotsBaromVisibWave heightAir tempDewpointWater temp
2015-Sep-01 01:33N 46°01' W 124°45'10 9.8
2015-Sep-01 00:33N 46°10' W 124°41'9 9.2
2015-Aug-31 23:33N 46°19' W 124°39'9 8.6
2015-Aug-31 22:33N 46°28' W 124°37'9 8.6
2015-Aug-31 21:33N 46°36' W 124°39'8 8.0
2015-Aug-31 20:33N 46°40' W 124°49'7 7.1
2015-Aug-31 19:33N 46°46' W 124°53'6 6.2
2015-Aug-31 18:33N 46°52' W 124°55'6 6.1
2015-Aug-31 17:30N 46°54' W 124°46'7 8.0
2015-Aug-31 16:33N 46°54' W 124°35'8 8.4
2015-Aug-31 15:33N 46°55' W 124°23'8 7.5
2015-Aug-31 14:33N 46°55' W 124°12'2 0.1
2015-Aug-29 16:33N 46°53' W 124°14'10 9.9
2015-Aug-29 15:33N 46°43' W 124°16'9 9.6
2015-Aug-29 14:33N 46°33' W 124°18'10 9.5
2015-Aug-29 13:33N 46°24' W 124°20'9 9.4
2015-Aug-29 12:33N 46°15' W 124°23'9 9.3
2015-Aug-29 11:33N 46°05' W 124°25'9 9.1
2015-Aug-29 10:33N 45°56' W 124°27'9 9.2
2015-Aug-29 09:33N 45°47' W 124°29'9 9.0
2015-Aug-29 08:33N 45°38' W 124°31'10 9.6
2015-Aug-29 07:33N 45°29' W 124°33'10 9.5
2015-Aug-29 06:33N 45°20' W 124°35'10 9.7
2015-Aug-29 05:33N 45°10' W 124°37'7 5.6
2015-Aug-29 04:18N 45°03' W 124°39'2 2.0
2015-Aug-29 03:23N 45°01' W 124°39'3 3.0
2015-Aug-29 02:32N 44°59' W 124°39'3 2.9
2015-Aug-29 01:29N 44°56' W 124°38'3 2.7
2015-Aug-29 00:31N 44°56' W 124°34'4 0.2
2015-Aug-28 05:13N 44°55' W 124°39'1 2.1
2015-Aug-28 04:33N 44°57' W 124°39'2 2.5
2015-Aug-28 03:33N 44°59' W 124°39'3 3.0
2015-Aug-28 02:33N 45°02' W 124°39'3 1.4
2015-Aug-28 00:33N 44°59' W 124°39'3 3.0
2015-Aug-27 23:28N 44°56' W 124°38'3 2.9
2015-Aug-27 22:33N 44°55' W 124°35'3 3.2
2015-Aug-27 21:33N 44°57' W 124°31'3 3.0
2015-Aug-27 20:30N 45°00' W 124°31'2 0.7
2015-Aug-27 18:18N 44°59' W 124°32'2 3.1
2015-Aug-27 17:33N 44°57' W 124°33'3 3.1
2015-Aug-27 16:32N 44°55' W 124°36'3 2.9
2015-Aug-27 15:25N 44°57' W 124°39'4 3.2
2015-Aug-27 14:13N 45°01' W 124°39'2 3.6
2015-Aug-27 13:33N 45°03' W 124°39'2 2.0
2015-Aug-27 12:33N 45°01' W 124°38'4 3.6
2015-Aug-27 11:33N 45°03' W 124°34'2 0.6
2015-Aug-27 08:31N 45°04' W 124°37'3 2.2
2015-Aug-27 07:06N 45°00' W 124°37'2 4.0
2015-Aug-27 06:33N 44°58' W 124°37'4 3.9
2015-Aug-27 05:33N 44°54' W 124°38'1 1.4
2015-Aug-27 04:31N 44°55' W 124°36'3 2.9
2015-Aug-27 03:32N 44°56' W 124°33'0 0.0
2015-Aug-27 01:32N 44°56' W 124°33'6 1.9
2015-Aug-26 22:33N 44°60' W 124°39'3 3.1
2015-Aug-26 21:33N 45°03' W 124°39'3 3.1
2015-Aug-26 20:32N 45°06' W 124°40'3 3.3
2015-Aug-26 19:33N 45°08' W 124°43'9 8.6
2015-Aug-26 18:33N 45°17' W 124°43'9 9.5
2015-Aug-26 17:33N 45°25' W 124°37'1010.1
2015-Aug-26 16:33N 45°35' W 124°33'9 9.3
2015-Aug-26 15:34N 45°42' W 124°42'9 9.2
2015-Aug-26 14:33N 45°51' W 124°43'9 9.0
2015-Aug-26 13:33N 45°60' W 124°46'2 1.9
2015-Aug-26 12:33N 45°59' W 124°48'0 0.4
2015-Aug-26 11:33N 45°59' W 124°48'1 0.8
2015-Aug-26 10:33N 45°60' W 124°49'1 0.8
2015-Aug-26 09:33N 46°00' W 124°49'1 0.8
2015-Aug-26 08:33N 46°01' W 124°49'1 1.0
2015-Aug-26 07:33N 46°02' W 124°49'1 0.9
2015-Aug-26 06:33N 46°03' W 124°50'4 3.5
2015-Aug-26 05:33N 46°04' W 124°55'4 4.4
2015-Aug-26 04:33N 46°07' W 124°59'6 5.8
2015-Aug-26 03:33N 46°12' W 125°03'8 7.6
2015-Aug-26 02:32N 46°19' W 124°58'8 8.0
2015-Aug-26 01:33N 46°24' W 124°49'8 7.8
2015-Aug-26 00:33N 46°29' W 124°40'8 8.3
2015-Aug-25 23:33N 46°36' W 124°33'8 8.2
2015-Aug-25 22:33N 46°43' W 124°27'8 8.0
2015-Aug-25 21:34N 46°49' W 124°20'6 6.4
2015-Aug-25 20:33N 46°54' W 124°13'5 0.4
2015-Aug-25 09:31N 46°54' W 124°06'3 0.2
2015-Aug-24 14:30N 46°54' W 124°11'6 6.4
2015-Aug-24 13:33N 46°49' W 124°15'6 5.6
2015-Aug-24 12:33N 46°44' W 124°18'6 6.0
2015-Aug-24 11:33N 46°38' W 124°22'7 6.6
2015-Aug-24 10:33N 46°32' W 124°25'7 6.6
2015-Aug-24 09:33N 46°26' W 124°29'7 7.0
2015-Aug-24 08:33N 46°19' W 124°32'7 7.4
2015-Aug-24 07:33N 46°13' W 124°36'7 6.8
2015-Aug-24 06:33N 46°06' W 124°40'6 6.5
2015-Aug-24 05:33N 46°00' W 124°43'5 5.0
2015-Aug-24 04:33N 45°55' W 124°45'2 1.8
2015-Aug-24 03:33N 45°57' W 124°44'2 2.0
2015-Aug-24 02:33N 45°59' W 124°46'3 2.7
2015-Aug-24 01:33N 45°56' W 124°45'3 2.9
2015-Aug-24 00:33N 45°53' W 124°45'0 0.2
2015-Aug-23 23:33N 45°53' W 124°45'3 3.0
2015-Aug-23 22:33N 45°56' W 124°44'3 3.0
2015-Aug-23 21:33N 45°59' W 124°46'2 1.7
2015-Aug-23 20:33N 45°58' W 124°44'3 2.8
2015-Aug-23 19:33N 45°55' W 124°45'3 2.8
2015-Aug-23 18:33N 45°52' W 124°45'0 0.2
2015-Aug-23 17:33N 45°52' W 124°45'3 3.4
2015-Aug-23 16:33N 45°56' W 124°44'3 3.1
2015-Aug-23 15:33N 45°59' W 124°45'1 1.4
2015-Aug-23 14:33N 45°60' W 124°46'4 4.2
2015-Aug-23 13:33N 45°56' W 124°44'3 3.1
2015-Aug-23 12:33N 45°53' W 124°45'3 3.3
2015-Aug-23 11:33N 45°51' W 124°48'2 2.0
2015-Aug-23 10:33N 45°52' W 124°47'2 2.0
2015-Aug-23 09:33N 45°54' W 124°45'2 2.2
2015-Aug-23 08:33N 45°56' W 124°44'2 2.2
2015-Aug-23 07:33N 45°58' W 124°42'1 0.5
2015-Aug-23 06:33N 45°58' W 124°43'2 1.5
2015-Aug-23 05:33N 45°57' W 124°45'1 1.0
2015-Aug-23 04:33N 45°57' W 124°46'1 0.7
2015-Aug-23 03:33N 45°56' W 124°45'2 2.3
2015-Aug-23 02:33N 45°54' W 124°45'2 1.9
2015-Aug-23 01:33N 45°52' W 124°46'3 2.9
2015-Aug-23 00:33N 45°55' W 124°45'3 2.9
2015-Aug-22 23:33N 45°58' W 124°45'0 0.1
2015-Aug-22 22:33N 45°58' W 124°45'3 2.8
2015-Aug-22 21:33N 45°55' W 124°45'3 3.0
2015-Aug-22 20:33N 45°52' W 124°45'3 2.8
2015-Aug-22 19:33N 45°50' W 124°45'3 2.8
2015-Aug-22 18:33N 45°47' W 124°44'1 0.8
2015-Aug-22 17:33N 45°46' W 124°44'3 3.1
2015-Aug-22 16:33N 45°49' W 124°43'3 3.1
2015-Aug-22 15:33N 45°52' W 124°44'3 3.4
2015-Aug-22 14:33N 45°56' W 124°44'3 2.9
2015-Aug-22 13:33N 45°53' W 124°45'6 5.7
2015-Aug-22 12:33N 45°59' W 124°44'5 4.7
2015-Aug-22 11:33N 46°03' W 124°42'6 5.8
2015-Aug-22 10:33N 46°08' W 124°39'6 6.3
2015-Aug-22 09:34N 46°14' W 124°35'6 6.0
2015-Aug-22 08:33N 46°20' W 124°32'6 5.5
2015-Aug-22 07:31N 46°25' W 124°29'5 5.3
2015-Aug-22 06:33N 46°30' W 124°27'5 5.3
2015-Aug-22 05:33N 46°35' W 124°24'6 5.5
2015-Aug-22 04:33N 46°40' W 124°21'6 5.5
2015-Aug-22 03:33N 46°45' W 124°18'5 5.4
2015-Aug-22 02:33N 46°50' W 124°15'  

Dump ship's entire track history